sensor_id;sensor_type;location;lat;lon;timestamp;temperature;humidity
32626;DHT22;19038;50.922;11.880;2022-10-03T00:12:39;12.90;83.50
32626;DHT22;19038;50.922;11.880;2022-10-03T00:17:40;12.90;83.40
32626;DHT22;19038;50.922;11.880;2022-10-03T00:22:36;12.80;83.00
32626;DHT22;19038;50.922;11.880;2022-10-03T00:27:39;12.80;83.20
32626;DHT22;19038;50.922;11.880;2022-10-03T00:37:35;12.70;83.10
32626;DHT22;19038;50.922;11.880;2022-10-03T00:47:39;12.60;83.00
32626;DHT22;19038;50.922;11.880;2022-10-03T01:02:40;12.60;83.00
32626;DHT22;19038;50.922;11.880;2022-10-03T01:07:44;12.50;84.00
32626;DHT22;19038;50.922;11.880;2022-10-03T01:17:37;12.50;83.60
32626;DHT22;19038;50.922;11.880;2022-10-03T01:27:36;12.60;84.10
32626;DHT22;19038;50.922;11.880;2022-10-03T01:37:39;12.60;84.60
32626;DHT22;19038;50.922;11.880;2022-10-03T01:42:38;12.60;84.40
32626;DHT22;19038;50.922;11.880;2022-10-03T01:52:38;12.60;84.10
32626;DHT22;19038;50.922;11.880;2022-10-03T01:57:35;12.60;84.00
32626;DHT22;19038;50.922;11.880;2022-10-03T02:07:37;12.50;84.10
32626;DHT22;19038;50.922;11.880;2022-10-03T02:12:35;12.60;84.50
32626;DHT22;19038;50.922;11.880;2022-10-03T02:17:41;12.60;84.20
32626;DHT22;19038;50.922;11.880;2022-10-03T02:22:35;12.50;84.10
32626;DHT22;19038;50.922;11.880;2022-10-03T02:27:40;12.60;84.40
32626;DHT22;19038;50.922;11.880;2022-10-03T02:42:39;12.50;84.20
32626;DHT22;19038;50.922;11.880;2022-10-03T03:12:42;12.50;84.00
32626;DHT22;19038;50.922;11.880;2022-10-03T03:17:39;12.40;84.60
32626;DHT22;19038;50.922;11.880;2022-10-03T03:32:42;12.50;84.80
32626;DHT22;19038;50.922;11.880;2022-10-03T03:37:40;12.50;84.80
32626;DHT22;19038;50.922;11.880;2022-10-03T03:42:45;12.50;84.80
32626;DHT22;19038;50.922;11.880;2022-10-03T03:52:43;12.50;85.20
32626;DHT22;19038;50.922;11.880;2022-10-03T04:02:42;12.50;85.30
32626;DHT22;19038;50.922;11.880;2022-10-03T04:07:44;12.50;85.60
32626;DHT22;19038;50.922;11.880;2022-10-03T04:12:45;12.50;85.90
32626;DHT22;19038;50.922;11.880;2022-10-03T04:22:46;12.50;85.70
32626;DHT22;19038;50.922;11.880;2022-10-03T04:27:46;12.40;86.00
32626;DHT22;19038;50.922;11.880;2022-10-03T04:47:41;12.60;86.00
32626;DHT22;19038;50.922;11.880;2022-10-03T05:07:44;12.50;85.90
32626;DHT22;19038;50.922;11.880;2022-10-03T05:17:44;12.60;86.30
32626;DHT22;19038;50.922;11.880;2022-10-03T05:22:41;12.60;86.20
32626;DHT22;19038;50.922;11.880;2022-10-03T05:27:41;12.60;86.40
32626;DHT22;19038;50.922;11.880;2022-10-03T05:32:40;12.60;86.70
32626;DHT22;19038;50.922;11.880;2022-10-03T05:37:47;12.60;86.40
32626;DHT22;19038;50.922;11.880;2022-10-03T05:47:48;12.60;86.70
32626;DHT22;19038;50.922;11.880;2022-10-03T06:07:43;12.70;87.80
32626;DHT22;19038;50.922;11.880;2022-10-03T06:12:43;12.80;88.10
32626;DHT22;19038;50.922;11.880;2022-10-03T06:17:49;12.80;88.20
32626;DHT22;19038;50.922;11.880;2022-10-03T06:22:48;12.90;88.00
32626;DHT22;19038;50.922;11.880;2022-10-03T06:42:46;12.90;88.60
32626;DHT22;19038;50.922;11.880;2022-10-03T06:47:43;12.90;88.40
32626;DHT22;19038;50.922;11.880;2022-10-03T07:02:46;13.10;88.60
32626;DHT22;19038;50.922;11.880;2022-10-03T07:22:47;13.20;88.30
32626;DHT22;19038;50.922;11.880;2022-10-03T07:27:44;13.20;88.10
32626;DHT22;19038;50.922;11.880;2022-10-03T07:32:43;13.20;88.10
32626;DHT22;19038;50.922;11.880;2022-10-03T07:37:44;13.20;88.30
32626;DHT22;19038;50.922;11.880;2022-10-03T08:02:43;13.40;88.30
32626;DHT22;19038;50.922;11.880;2022-10-03T08:07:44;13.50;88.40
32626;DHT22;19038;50.922;11.880;2022-10-03T08:17:49;13.60;89.20
32626;DHT22;19038;50.922;11.880;2022-10-03T08:22:51;13.70;90.00
32626;DHT22;19038;50.922;11.880;2022-10-03T08:27:46;13.70;89.60
32626;DHT22;19038;50.922;11.880;2022-10-03T09:12:47;14.30;89.60
32626;DHT22;19038;50.922;11.880;2022-10-03T09:22:48;14.40;87.30
32626;DHT22;19038;50.922;11.880;2022-10-03T09:27:45;14.50;87.60
32626;DHT22;19038;50.922;11.880;2022-10-03T09:57:45;14.60;89.00
32626;DHT22;19038;50.922;11.880;2022-10-03T10:02:50;14.80;90.50
32626;DHT22;19038;50.922;11.880;2022-10-03T10:07:52;14.90;89.70
32626;DHT22;19038;50.922;11.880;2022-10-03T10:12:50;15.00;90.00
32626;DHT22;19038;50.922;11.880;2022-10-03T10:17:53;15.10;89.20
32626;DHT22;19038;50.922;11.880;2022-10-03T10:32:52;15.40;85.00
32626;DHT22;19038;50.922;11.880;2022-10-03T11:07:56;15.70;78.90
32626;DHT22;19038;50.922;11.880;2022-10-03T11:12:57;15.70;80.20
32626;DHT22;19038;50.922;11.880;2022-10-03T11:17:50;15.70;79.10
32626;DHT22;19038;50.922;11.880;2022-10-03T11:27:54;15.60;79.40
32626;DHT22;19038;50.922;11.880;2022-10-03T11:37:45;15.70;80.10
32626;DHT22;19038;50.922;11.880;2022-10-03T11:42:50;15.70;80.60
32626;DHT22;19038;50.922;11.880;2022-10-03T11:47:48;15.80;80.80
32626;DHT22;19038;50.922;11.880;2022-10-03T11:52:54;15.80;81.10
32626;DHT22;19038;50.922;11.880;2022-10-03T11:57:48;15.80;79.50
32626;DHT22;19038;50.922;11.880;2022-10-03T12:02:51;15.80;80.00
32626;DHT22;19038;50.922;11.880;2022-10-03T12:07:49;15.80;80.00
32626;DHT22;19038;50.922;11.880;2022-10-03T12:12:47;15.80;79.00
32626;DHT22;19038;50.922;11.880;2022-10-03T12:17:49;15.80;79.00
32626;DHT22;19038;50.922;11.880;2022-10-03T12:22:46;15.90;79.00
32626;DHT22;19038;50.922;11.880;2022-10-03T12:27:49;16.10;78.80
32626;DHT22;19038;50.922;11.880;2022-10-03T12:37:50;16.20;75.70
32626;DHT22;19038;50.922;11.880;2022-10-03T12:47:54;16.10;76.30
32626;DHT22;19038;50.922;11.880;2022-10-03T12:52:48;16.10;75.80
32626;DHT22;19038;50.922;11.880;2022-10-03T12:57:48;16.00;76.60
32626;DHT22;19038;50.922;11.880;2022-10-03T13:02:51;16.10;76.80
32626;DHT22;19038;50.922;11.880;2022-10-03T13:12:46;16.10;76.70
32626;DHT22;19038;50.922;11.880;2022-10-03T13:22:51;16.00;75.70
32626;DHT22;19038;50.922;11.880;2022-10-03T13:27:46;16.10;76.00
32626;DHT22;19038;50.922;11.880;2022-10-03T13:42:47;16.10;74.90
32626;DHT22;19038;50.922;11.880;2022-10-03T13:47:50;16.20;75.10
32626;DHT22;19038;50.922;11.880;2022-10-03T13:52:50;16.20;74.40
32626;DHT22;19038;50.922;11.880;2022-10-03T14:12:53;16.10;72.70
32626;DHT22;19038;50.922;11.880;2022-10-03T14:17:54;16.20;72.50
32626;DHT22;19038;50.922;11.880;2022-10-03T14:22:49;16.20;72.50
32626;DHT22;19038;50.922;11.880;2022-10-03T14:27:51;16.30;73.20
32626;DHT22;19038;50.922;11.880;2022-10-03T14:37:53;16.20;72.50
32626;DHT22;19038;50.922;11.880;2022-10-03T14:47:48;16.20;72.60
32626;DHT22;19038;50.922;11.880;2022-10-03T14:52:49;16.20;73.30
32626;DHT22;19038;50.922;11.880;2022-10-03T14:57:50;16.20;73.10
32626;DHT22;19038;50.922;11.880;2022-10-03T15:02:47;16.20;73.00
32626;DHT22;19038;50.922;11.880;2022-10-03T15:07:47;16.20;73.00
32626;DHT22;19038;50.922;11.880;2022-10-03T15:12:48;16.20;73.20
32626;DHT22;19038;50.922;11.880;2022-10-03T15:17:48;16.20;72.10
32626;DHT22;19038;50.922;11.880;2022-10-03T15:22:49;16.20;73.00
32626;DHT22;19038;50.922;11.880;2022-10-03T15:27:49;16.10;72.50
32626;DHT22;19038;50.922;11.880;2022-10-03T15:32:49;16.10;72.50
32626;DHT22;19038;50.922;11.880;2022-10-03T15:37:48;16.00;72.10
32626;DHT22;19038;50.922;11.880;2022-10-03T15:42:50;16.00;72.80
32626;DHT22;19038;50.922;11.880;2022-10-03T15:47:48;16.00;72.40
32626;DHT22;19038;50.922;11.880;2022-10-03T15:52:50;16.00;72.50
32626;DHT22;19038;50.922;11.880;2022-10-03T15:57:50;15.90;73.40
32626;DHT22;19038;50.922;11.880;2022-10-03T16:02:50;15.90;73.90
32626;DHT22;19038;50.922;11.880;2022-10-03T16:07:53;15.80;73.50
32626;DHT22;19038;50.922;11.880;2022-10-03T16:12:52;15.80;74.20
32626;DHT22;19038;50.922;11.880;2022-10-03T16:17:50;15.50;73.70
32626;DHT22;19038;50.922;11.880;2022-10-03T16:22:49;15.80;74.50
32626;DHT22;19038;50.922;11.880;2022-10-03T16:27:52;15.70;74.30
32626;DHT22;19038;50.922;11.880;2022-10-03T16:32:56;16.00;75.20
32626;DHT22;19038;50.922;11.880;2022-10-03T16:37:48;15.70;75.20
32626;DHT22;19038;50.922;11.880;2022-10-03T16:42:49;15.60;75.10
32626;DHT22;19038;50.922;11.880;2022-10-03T16:47:48;15.60;75.60
32626;DHT22;19038;50.922;11.880;2022-10-03T16:52:50;15.60;75.90
32626;DHT22;19038;50.922;11.880;2022-10-03T16:57:51;15.60;76.30
32626;DHT22;19038;50.922;11.880;2022-10-03T17:02:48;15.50;76.30
32626;DHT22;19038;50.922;11.880;2022-10-03T17:07:50;15.50;76.50
32626;DHT22;19038;50.922;11.880;2022-10-03T17:12:50;15.50;76.70
32626;DHT22;19038;50.922;11.880;2022-10-03T17:17:52;15.40;76.70
32626;DHT22;19038;50.922;11.880;2022-10-03T17:22:54;15.40;76.80
32626;DHT22;19038;50.922;11.880;2022-10-03T17:27:50;15.40;76.90
32626;DHT22;19038;50.922;11.880;2022-10-03T17:32:52;15.30;77.20
32626;DHT22;19038;50.922;11.880;2022-10-03T17:37:55;15.30;77.50
32626;DHT22;19038;50.922;11.880;2022-10-03T17:42:54;15.30;77.60
32626;DHT22;19038;50.922;11.880;2022-10-03T17:47:54;15.30;77.20
32626;DHT22;19038;50.922;11.880;2022-10-03T17:52:50;15.30;76.80
32626;DHT22;19038;50.922;11.880;2022-10-03T17:57:54;15.30;77.00
32626;DHT22;19038;50.922;11.880;2022-10-03T18:02:54;15.20;78.00
32626;DHT22;19038;50.922;11.880;2022-10-03T18:07:50;15.20;77.30
32626;DHT22;19038;50.922;11.880;2022-10-03T18:12:51;15.20;76.80
32626;DHT22;19038;50.922;11.880;2022-10-03T18:22:54;15.10;76.00
32626;DHT22;19038;50.922;11.880;2022-10-03T18:27:55;15.10;75.90
32626;DHT22;19038;50.922;11.880;2022-10-03T18:32:50;15.10;76.00
32626;DHT22;19038;50.922;11.880;2022-10-03T18:37:52;15.10;75.90
32626;DHT22;19038;50.922;11.880;2022-10-03T18:42:50;15.10;75.80
32626;DHT22;19038;50.922;11.880;2022-10-03T18:47:51;15.10;76.00
32626;DHT22;19038;50.922;11.880;2022-10-03T18:52:54;15.10;75.60
32626;DHT22;19038;50.922;11.880;2022-10-03T18:57:56;15.00;75.50
32626;DHT22;19038;50.922;11.880;2022-10-03T19:02:52;15.00;75.80
32626;DHT22;19038;50.922;11.880;2022-10-03T19:07:54;14.90;76.30
32626;DHT22;19038;50.922;11.880;2022-10-03T19:12:57;14.90;75.90
32626;DHT22;19038;50.922;11.880;2022-10-03T19:22:54;15.00;76.20
32626;DHT22;19038;50.922;11.880;2022-10-03T19:27:59;14.90;76.40
32626;DHT22;19038;50.922;11.880;2022-10-03T19:37:54;14.90;76.20
32626;DHT22;19038;50.922;11.880;2022-10-03T19:42:54;14.90;75.40
32626;DHT22;19038;50.922;11.880;2022-10-03T19:52:52;14.80;75.70
32626;DHT22;19038;50.922;11.880;2022-10-03T19:57:53;14.80;75.60
32626;DHT22;19038;50.922;11.880;2022-10-03T20:02:58;14.80;76.10
32626;DHT22;19038;50.922;11.880;2022-10-03T20:07:57;14.80;75.70
32626;DHT22;19038;50.922;11.880;2022-10-03T20:12:52;14.80;76.10
32626;DHT22;19038;50.922;11.880;2022-10-03T20:17:55;14.70;75.90
32626;DHT22;19038;50.922;11.880;2022-10-03T20:22:52;14.70;76.30
32626;DHT22;19038;50.922;11.880;2022-10-03T20:27:52;14.70;76.30
32626;DHT22;19038;50.922;11.880;2022-10-03T20:32:52;14.70;76.60
32626;DHT22;19038;50.922;11.880;2022-10-03T20:37:57;14.70;76.30
32626;DHT22;19038;50.922;11.880;2022-10-03T20:42:52;14.70;76.90
32626;DHT22;19038;50.922;11.880;2022-10-03T20:52:55;14.60;76.70
32626;DHT22;19038;50.922;11.880;2022-10-03T20:57:57;14.60;76.70
32626;DHT22;19038;50.922;11.880;2022-10-03T21:02:55;14.60;76.70
32626;DHT22;19038;50.922;11.880;2022-10-03T21:07:53;14.60;76.90
32626;DHT22;19038;50.922;11.880;2022-10-03T21:12:53;14.60;77.20
32626;DHT22;19038;50.922;11.880;2022-10-03T21:17:53;14.60;76.90
32626;DHT22;19038;50.922;11.880;2022-10-03T21:22:54;14.60;76.90
32626;DHT22;19038;50.922;11.880;2022-10-03T21:27:53;14.60;77.20
32626;DHT22;19038;50.922;11.880;2022-10-03T21:47:55;14.60;77.20
32626;DHT22;19038;50.922;11.880;2022-10-03T22:02:58;14.60;77.20
32626;DHT22;19038;50.922;11.880;2022-10-03T22:07:53;14.60;77.40
32626;DHT22;19038;50.922;11.880;2022-10-03T22:12:56;14.60;77.60
32626;DHT22;19038;50.922;11.880;2022-10-03T22:17:57;14.60;77.70
32626;DHT22;19038;50.922;11.880;2022-10-03T22:27:56;14.60;77.80
32626;DHT22;19038;50.922;11.880;2022-10-03T22:32:58;14.60;77.60
32626;DHT22;19038;50.922;11.880;2022-10-03T22:37:53;14.60;77.70
32626;DHT22;19038;50.922;11.880;2022-10-03T22:42:53;14.60;78.00
32626;DHT22;19038;50.922;11.880;2022-10-03T22:47:54;14.60;78.10
32626;DHT22;19038;50.922;11.880;2022-10-03T22:52:53;14.60;78.30
32626;DHT22;19038;50.922;11.880;2022-10-03T22:57:53;14.60;77.90
32626;DHT22;19038;50.922;11.880;2022-10-03T23:03:02;14.60;78.50
32626;DHT22;19038;50.922;11.880;2022-10-03T23:13:01;14.60;78.80
32626;DHT22;19038;50.922;11.880;2022-10-03T23:17:58;14.60;78.70
32626;DHT22;19038;50.922;11.880;2022-10-03T23:22:55;14.60;78.70
32626;DHT22;19038;50.922;11.880;2022-10-03T23:28:02;14.60;78.90
32626;DHT22;19038;50.922;11.880;2022-10-03T23:32:55;14.50;78.90
32626;DHT22;19038;50.922;11.880;2022-10-03T23:37:54;14.60;79.00
32626;DHT22;19038;50.922;11.880;2022-10-03T23:42:59;14.60;79.00
32626;DHT22;19038;50.922;11.880;2022-10-03T23:47:59;14.60;78.90
32626;DHT22;19038;50.922;11.880;2022-10-03T23:52:55;14.50;78.80
32626;DHT22;19038;50.922;11.880;2022-10-03T23:57:54;14.50;78.60
